createdAt,value
2023-02-11T00:01:30.114Z,8.25
2023-02-11T00:03:59.625Z,6.97
2023-02-11T00:06:30.552Z,6.65
2023-02-11T00:09:00.461Z,8.13
2023-02-11T00:11:30.325Z,8.38
2023-02-11T00:14:00.004Z,7.63
2023-02-11T00:16:29.392Z,8.50
2023-02-11T00:18:58.716Z,8.52
2023-02-11T00:21:27.997Z,7.90
2023-02-11T00:23:58.562Z,7.55
2023-02-11T00:26:30.473Z,6.97
2023-02-11T00:28:59.205Z,6.93
2023-02-11T00:31:27.829Z,8.23
2023-02-11T00:33:56.573Z,7.72
2023-02-11T00:36:28.580Z,7.50
2023-02-11T00:38:58.620Z,6.93
2023-02-11T00:41:28.508Z,7.32
2023-02-11T00:43:57.096Z,6.60
2023-02-11T00:46:25.735Z,6.20
2023-02-11T00:48:57.564Z,7.72
2023-02-11T00:51:26.787Z,6.97
2023-02-11T00:53:55.389Z,7.50
2023-02-11T00:56:25.179Z,7.90
2023-02-11T00:58:55.051Z,7.70
2023-02-11T01:01:23.899Z,7.63
2023-02-11T01:03:52.630Z,6.72
2023-02-11T01:06:21.047Z,6.70
2023-02-11T01:08:49.556Z,6.35
2023-02-11T01:11:20.713Z,6.20
2023-02-11T01:13:50.339Z,6.53
2023-02-11T01:16:21.337Z,6.25
2023-02-11T01:18:49.852Z,7.65
2023-02-11T01:21:19.390Z,6.00
2023-02-11T01:23:48.219Z,7.35
2023-02-11T01:26:16.761Z,6.68
2023-02-11T01:28:45.591Z,7.15
2023-02-11T01:31:14.457Z,7.30
2023-02-11T01:33:44.323Z,6.45
2023-02-11T01:36:13.403Z,6.88
2023-02-11T01:38:41.940Z,6.35
2023-02-11T01:41:14.512Z,6.80
2023-02-11T01:43:44.787Z,6.75
2023-02-11T01:46:30.939Z,7.53
2023-02-11T01:49:05.365Z,6.45
2023-02-11T01:51:38.988Z,6.72
2023-02-11T01:54:27.852Z,7.28
2023-02-11T01:57:17.377Z,7.30
2023-02-11T01:59:51.662Z,7.18
2023-02-11T02:02:24.869Z,7.20
2023-02-11T02:05:01.617Z,7.03
2023-02-11T02:07:35.763Z,7.53
2023-02-11T02:10:10.676Z,8.02
2023-02-11T02:12:39.127Z,8.23
2023-02-11T02:15:20.327Z,6.65
2023-02-11T02:17:58.333Z,8.18
2023-02-11T02:21:04.690Z,7.28
2023-02-11T02:24:05.485Z,7.20
2023-02-11T02:26:54.829Z,6.95
2023-02-11T02:29:56.586Z,6.10
2023-02-11T02:32:37.035Z,6.55
2023-02-11T02:35:16.628Z,6.97
2023-02-11T02:37:52.240Z,6.53
2023-02-11T02:40:24.529Z,5.90
2023-02-11T02:42:55.223Z,6.68
2023-02-11T02:45:23.683Z,7.32
2023-02-11T02:47:53.522Z,7.68
2023-02-11T02:50:30.161Z,7.18
2023-02-11T02:53:12.890Z,6.93
2023-02-11T02:55:50.860Z,5.82
2023-02-11T02:58:36.532Z,5.95
2023-02-11T03:01:15.202Z,6.18
2023-02-11T03:03:54.410Z,6.50
2023-02-11T03:06:31.575Z,6.53
2023-02-11T03:09:09.651Z,6.97
2023-02-11T03:11:40.871Z,6.70
2023-02-11T03:14:14.753Z,7.00
2023-02-11T03:16:44.974Z,7.53
2023-02-11T03:19:19.934Z,7.57
2023-02-11T03:21:52.550Z,6.80
2023-02-11T03:24:28.379Z,5.50
2023-02-11T03:27:00.054Z,7.00
2023-02-11T03:29:36.539Z,7.60
2023-02-11T03:32:16.063Z,6.43
2023-02-11T03:34:49.922Z,7.18
2023-02-11T03:37:22.966Z,6.85
2023-02-11T03:39:55.645Z,6.75
2023-02-11T03:42:27.454Z,6.00
2023-02-11T03:45:00.936Z,6.60
2023-02-11T03:47:32.417Z,7.32
2023-02-11T03:50:05.983Z,6.70
2023-02-11T03:52:36.062Z,6.97
2023-02-11T03:55:09.907Z,6.78
2023-02-11T03:57:38.731Z,6.53
2023-02-11T04:00:08.660Z,6.97
2023-02-11T04:02:43.065Z,6.63
2023-02-11T04:05:15.799Z,6.07
2023-02-11T04:07:44.199Z,6.07
2023-02-11T04:10:13.215Z,6.00
2023-02-11T04:12:41.715Z,7.03
2023-02-11T04:15:10.813Z,7.28
2023-02-11T04:17:40.402Z,7.18
2023-02-11T04:20:09.797Z,7.38
2023-02-11T04:22:39.745Z,7.45
2023-02-11T04:25:09.391Z,6.60
2023-02-11T04:27:38.003Z,7.47
2023-02-11T04:30:08.414Z,7.07
2023-02-11T04:32:36.796Z,8.10
2023-02-11T04:35:05.790Z,7.57
2023-02-11T04:37:34.238Z,6.43
2023-02-11T04:40:04.671Z,7.45
2023-02-11T04:42:33.121Z,6.95
2023-02-11T04:45:01.850Z,8.02
2023-02-11T04:47:30.457Z,6.85
2023-02-11T04:49:58.817Z,7.97
2023-02-11T04:52:27.241Z,7.80
2023-02-11T04:54:55.657Z,7.20
2023-02-11T04:57:25.397Z,8.23
2023-02-11T04:59:53.798Z,11.10
2023-02-11T05:02:22.294Z,7.50
2023-02-11T05:04:50.790Z,8.80
2023-02-11T05:07:19.335Z,7.32
2023-02-11T05:09:47.823Z,7.35
2023-02-11T05:12:16.271Z,6.80
2023-02-11T05:14:46.160Z,6.13
2023-02-11T05:17:14.716Z,6.75
2023-02-11T05:19:43.557Z,7.90
2023-02-11T05:22:11.964Z,6.93
2023-02-11T05:24:40.637Z,7.28
2023-02-11T05:27:09.054Z,7.00
2023-02-11T05:29:37.648Z,6.68
2023-02-11T05:32:08.999Z,7.65
2023-02-11T05:34:37.623Z,6.30
2023-02-11T05:37:06.078Z,6.30
2023-02-11T05:39:34.550Z,6.57
2023-02-11T05:42:03.010Z,7.22
2023-02-11T05:44:31.491Z,7.57
2023-02-11T05:46:59.963Z,6.45
2023-02-11T05:49:29.782Z,7.60
2023-02-11T05:51:58.502Z,7.10
2023-02-11T05:54:26.930Z,7.20
2023-02-11T05:56:55.304Z,7.80
2023-02-11T05:59:23.732Z,7.22
2023-02-11T06:01:52.140Z,7.70
2023-02-11T06:04:20.602Z,7.25
2023-02-11T06:06:50.468Z,7.15
2023-02-11T06:09:18.902Z,6.93
2023-02-11T06:11:47.283Z,7.85
2023-02-11T06:14:15.672Z,7.90
2023-02-11T06:16:44.085Z,7.60
2023-02-11T06:19:13.182Z,8.02
2023-02-11T06:21:44.133Z,7.35
2023-02-11T06:24:14.311Z,9.18
2023-02-11T06:26:42.766Z,8.50
2023-02-11T06:29:11.323Z,7.97
2023-02-11T06:31:40.258Z,9.07
2023-02-11T06:34:09.696Z,7.85
2023-02-11T06:36:40.317Z,7.05
2023-02-11T06:39:09.118Z,7.32
2023-02-11T06:41:38.967Z,8.02
2023-02-11T06:44:07.869Z,7.07
2023-02-11T06:46:36.569Z,7.70
2023-02-11T06:49:05.008Z,7.72
2023-02-11T06:51:33.462Z,7.32
2023-02-11T06:54:01.954Z,7.18
2023-02-11T06:56:30.439Z,8.30
2023-02-11T06:59:00.351Z,6.80
2023-02-11T07:01:29.269Z,7.68
2023-02-11T07:03:58.161Z,7.65
2023-02-11T07:06:28.222Z,7.45
2023-02-11T07:08:57.370Z,8.35
2023-02-11T07:11:27.281Z,8.30
2023-02-11T07:13:58.067Z,8.18
2023-02-11T07:16:28.043Z,9.20
2023-02-11T07:18:56.528Z,8.23
2023-02-11T07:21:25.621Z,9.18
2023-02-11T07:23:54.490Z,8.15
2023-02-11T07:26:25.796Z,7.88
2023-02-11T07:28:55.460Z,7.75
2023-02-11T07:31:27.033Z,7.55
2023-02-11T07:33:59.737Z,8.55
2023-02-11T07:36:29.323Z,8.35
2023-02-11T07:38:57.854Z,8.25
2023-02-11T07:41:27.454Z,8.82
2023-02-11T07:43:56.318Z,8.95
2023-02-11T07:46:26.823Z,7.93
2023-02-11T07:48:55.422Z,9.65
2023-02-11T07:51:27.406Z,8.50
2023-02-11T07:53:56.844Z,9.20
2023-02-11T07:56:25.712Z,8.93
2023-02-11T07:58:54.391Z,7.78
2023-02-11T08:01:25.526Z,9.27
2023-02-11T08:03:54.525Z,8.93
2023-02-11T08:06:26.206Z,8.98
2023-02-11T08:08:55.043Z,8.52
2023-02-11T08:11:26.456Z,7.90
2023-02-11T08:13:56.899Z,8.15
2023-02-11T08:18:57.364Z,9.23
2023-02-11T08:21:28.067Z,8.20
2023-02-11T08:23:56.968Z,8.77
2023-02-11T08:26:28.428Z,9.40
2023-02-11T08:28:58.602Z,9.05
2023-02-11T08:31:29.359Z,10.10
2023-02-11T08:33:58.280Z,9.90
2023-02-11T08:36:30.332Z,10.77
2023-02-11T08:39:17.586Z,9.50
2023-02-11T08:41:48.830Z,10.38
2023-02-11T08:44:17.799Z,8.95
2023-02-11T08:46:46.610Z,10.88
2023-02-11T08:49:15.621Z,10.70
2023-02-11T08:51:46.148Z,9.85
2023-02-11T08:54:14.726Z,10.38
2023-02-11T08:56:43.602Z,11.18
2023-02-11T08:59:14.930Z,10.60
2023-02-11T09:01:44.139Z,10.13
2023-02-11T09:04:13.029Z,11.20
2023-02-11T09:06:42.034Z,9.02
2023-02-11T09:09:14.721Z,11.50
2023-02-11T09:11:44.730Z,11.57
2023-02-11T09:14:19.011Z,10.85
2023-02-11T09:16:47.671Z,10.85
2023-02-11T09:19:16.477Z,11.43
2023-02-11T09:21:45.490Z,11.40
2023-02-11T09:24:15.596Z,10.15
2023-02-11T09:26:44.521Z,10.13
2023-02-11T09:29:13.553Z,10.63
2023-02-11T09:31:42.268Z,12.18
2023-02-11T09:34:12.541Z,10.75
2023-02-11T09:36:41.795Z,10.82
2023-02-11T09:39:13.620Z,10.55
2023-02-11T09:42:03.907Z,12.10
2023-02-11T09:44:35.021Z,12.38
2023-02-11T09:47:07.162Z,11.32
2023-02-11T09:49:42.804Z,11.60
2023-02-11T09:52:22.211Z,12.77
2023-02-11T09:54:55.780Z,11.38
2023-02-11T09:57:30.290Z,12.27
2023-02-11T09:59:58.879Z,13.80
2023-02-11T10:02:35.330Z,15.50
2023-02-11T10:07:49.625Z,13.85
2023-02-11T10:10:32.530Z,12.65
2023-02-11T10:13:31.389Z,12.38
2023-02-11T10:16:06.921Z,11.27
2023-02-11T10:19:22.067Z,11.65
2023-02-11T10:21:59.336Z,11.10
2023-02-11T10:24:28.998Z,9.00
2023-02-11T10:26:57.450Z,10.75
2023-02-11T10:29:38.240Z,9.90
2023-02-11T10:32:17.685Z,10.15
2023-02-11T10:34:46.148Z,9.38
2023-02-11T10:37:15.466Z,8.60
2023-02-11T10:39:44.388Z,8.98
2023-02-11T10:42:14.741Z,10.60
2023-02-11T10:44:55.218Z,10.40
2023-02-11T10:47:26.295Z,9.50
2023-02-11T10:49:54.841Z,10.20
2023-02-11T10:52:25.412Z,10.27
2023-02-11T10:54:59.036Z,30.95
2023-02-11T10:57:31.756Z,30.42
2023-02-11T11:00:07.046Z,10.80
2023-02-11T11:02:39.536Z,13.15
2023-02-11T11:05:18.194Z,8.88
2023-02-11T11:07:54.734Z,8.98
2023-02-11T11:10:35.501Z,9.02
2023-02-11T11:13:04.432Z,7.97
2023-02-11T11:15:34.289Z,8.70
2023-02-11T11:18:21.218Z,9.32
2023-02-11T11:20:58.344Z,10.68
2023-02-11T11:26:05.987Z,9.57
2023-02-11T11:28:40.255Z,10.70
2023-02-11T11:31:18.087Z,11.18
2023-02-11T11:33:48.419Z,11.00
2023-02-11T11:36:20.786Z,11.98
2023-02-11T11:38:53.477Z,14.18
2023-02-11T11:41:26.526Z,10.95
2023-02-11T11:44:00.896Z,12.52
2023-02-11T11:46:33.889Z,9.05
2023-02-11T11:49:18.479Z,12.05
2023-02-11T11:51:55.835Z,11.15
2023-02-11T11:54:26.640Z,12.48
2023-02-11T11:57:00.960Z,10.35
2023-02-11T11:59:30.192Z,12.32
2023-02-11T12:02:19.208Z,11.95
2023-02-11T12:04:59.295Z,12.75
2023-02-11T12:07:40.806Z,11.23
2023-02-11T12:10:37.058Z,8.68
2023-02-11T12:13:21.044Z,9.90
2023-02-11T12:16:03.374Z,10.02
2023-02-11T12:18:50.651Z,8.93
2023-02-11T12:21:30.433Z,8.65
2023-02-11T12:24:10.912Z,7.57
2023-02-11T12:26:47.269Z,8.95
2023-02-11T12:29:28.737Z,11.45
2023-02-11T12:32:11.446Z,9.05
2023-02-11T12:35:07.243Z,8.60
2023-02-11T12:37:50.528Z,42.42
2023-02-11T12:40:28.912Z,25.60
2023-02-11T12:43:17.827Z,28.77
2023-02-11T12:46:00.266Z,40.25
2023-02-11T12:48:52.792Z,39.75
2023-02-11T12:51:33.054Z,34.25
2023-02-11T12:54:18.371Z,37.38
2023-02-11T12:56:53.020Z,37.38
2023-02-11T12:59:33.969Z,13.25
2023-02-11T13:02:10.650Z,8.60
2023-02-11T13:04:44.256Z,9.45
2023-02-11T13:07:18.395Z,25.48
2023-02-11T13:09:52.324Z,6.68
2023-02-11T13:12:38.150Z,9.30
2023-02-11T13:15:14.836Z,15.80
2023-02-11T13:17:51.683Z,5.00
2023-02-11T13:20:31.519Z,12.60
2023-02-11T13:23:08.734Z,9.30
2023-02-11T13:25:43.879Z,13.13
2023-02-11T13:28:34.769Z,16.63
2023-02-11T13:31:07.024Z,15.00
2023-02-11T13:33:39.520Z,15.70
2023-02-11T13:36:30.184Z,21.60
2023-02-11T13:39:03.428Z,16.48
2023-02-11T13:41:36.150Z,12.77
2023-02-11T13:44:19.262Z,14.73
2023-02-11T13:46:57.301Z,16.38
2023-02-11T13:49:30.735Z,17.85
2023-02-11T13:52:01.665Z,21.67
2023-02-11T13:54:35.267Z,18.00
2023-02-11T13:57:24.453Z,17.95
2023-02-11T13:59:54.760Z,19.20
2023-02-11T14:02:44.391Z,17.13
2023-02-11T14:05:50.310Z,16.55
2023-02-11T14:08:39.800Z,14.25
2023-02-11T14:11:31.810Z,14.35
2023-02-11T14:14:15.332Z,13.55
2023-02-11T14:17:18.903Z,17.08
2023-02-11T14:19:49.328Z,17.75
2023-02-11T14:22:21.177Z,5.60
2023-02-11T14:24:53.407Z,7.50
2023-02-11T14:27:29.163Z,13.75
2023-02-11T14:30:14.999Z,15.73
2023-02-11T14:33:09.587Z,16.42
2023-02-11T14:38:23.753Z,10.70
2023-02-11T14:40:59.571Z,6.25
2023-02-11T14:43:35.992Z,8.18
2023-02-11T14:46:04.770Z,11.38
2023-02-11T14:48:37.293Z,10.40
2023-02-11T14:51:09.476Z,5.75
2023-02-11T14:53:44.496Z,6.75
2023-02-11T14:56:21.903Z,23.88
2023-02-11T14:58:52.723Z,17.55
2023-02-11T15:01:29.813Z,12.48
2023-02-11T15:03:59.405Z,9.55
2023-02-11T15:06:31.595Z,11.90
2023-02-11T15:09:03.529Z,10.40
2023-02-11T15:11:34.991Z,16.77
2023-02-11T15:14:11.997Z,9.27
2023-02-11T15:16:43.482Z,9.55
2023-02-11T15:19:22.368Z,12.85
2023-02-11T15:21:52.137Z,11.68
2023-02-11T15:24:27.630Z,8.57
2023-02-11T15:27:04.228Z,11.70
2023-02-11T15:29:40.210Z,8.43
2023-02-11T15:32:15.014Z,10.50
2023-02-11T15:34:44.197Z,10.13
2023-02-11T15:37:15.366Z,12.27
2023-02-11T15:39:44.096Z,10.48
2023-02-11T15:42:23.528Z,7.50
2023-02-11T15:45:12.490Z,9.07
2023-02-11T15:47:41.891Z,7.10
2023-02-11T15:50:21.520Z,8.27
2023-02-11T15:52:50.848Z,4.10
2023-02-11T15:55:20.577Z,4.32
2023-02-11T15:57:54.719Z,4.60
2023-02-11T16:00:30.140Z,4.75
2023-02-11T16:02:58.604Z,7.97
2023-02-11T16:05:31.095Z,9.77
2023-02-11T16:08:00.460Z,4.50
2023-02-11T16:10:31.028Z,4.60
2023-02-11T16:13:17.560Z,4.63
2023-02-11T16:15:52.361Z,5.00
2023-02-11T16:18:37.327Z,5.00
2023-02-11T16:21:14.400Z,7.85
2023-02-11T16:23:44.201Z,15.60
2023-02-11T16:26:20.879Z,5.78
2023-02-11T16:31:22.875Z,6.72
2023-02-11T16:33:53.820Z,9.05
2023-02-11T16:36:24.548Z,9.43
2023-02-11T16:38:53.951Z,9.00
2023-02-11T16:41:22.478Z,7.13
2023-02-11T16:43:51.033Z,6.95
2023-02-11T16:46:19.752Z,6.18
2023-02-11T16:48:49.721Z,9.98
2023-02-11T16:51:18.202Z,7.32
2023-02-11T16:53:46.708Z,6.75
2023-02-11T16:56:17.129Z,8.93
2023-02-11T16:58:46.170Z,7.38
2023-02-11T17:01:14.863Z,9.95
2023-02-11T17:03:43.812Z,8.02
2023-02-11T17:06:14.516Z,9.30
2023-02-11T17:08:43.171Z,10.32
2023-02-11T17:11:11.696Z,9.30
2023-02-11T17:13:41.936Z,9.80
2023-02-11T17:16:18.066Z,12.98
2023-02-11T17:21:16.826Z,8.90
2023-02-11T17:23:45.978Z,8.65
2023-02-11T17:26:14.536Z,7.28
2023-02-11T17:28:43.351Z,8.00
2023-02-11T17:31:11.982Z,7.78
2023-02-11T17:33:40.723Z,6.70
2023-02-11T17:36:10.595Z,6.82
2023-02-11T17:38:40.443Z,6.57
2023-02-11T17:41:08.930Z,7.30
2023-02-11T17:43:37.442Z,7.55
2023-02-11T17:46:08.355Z,12.23
2023-02-11T17:48:38.535Z,7.45
2023-02-11T17:53:37.293Z,8.93
2023-02-11T17:56:08.950Z,8.90
2023-02-11T17:58:37.485Z,10.32
2023-02-11T18:01:06.392Z,8.65
2023-02-11T18:03:34.869Z,9.95
2023-02-11T18:06:05.455Z,11.40
2023-02-11T18:08:34.878Z,13.00
2023-02-11T18:11:03.936Z,11.57
2023-02-11T18:13:33.769Z,10.43
2023-02-11T18:16:08.390Z,13.15
2023-02-11T18:18:36.995Z,19.10
2023-02-11T18:21:08.537Z,19.15
2023-02-11T18:23:37.126Z,13.63
2023-02-11T18:26:08.703Z,13.15
2023-02-11T18:28:38.870Z,18.00
2023-02-11T18:33:37.712Z,16.23
2023-02-11T18:36:07.339Z,21.17
2023-02-11T18:38:36.021Z,18.48
2023-02-11T18:41:05.277Z,12.10
2023-02-11T18:43:35.427Z,17.48
2023-02-11T18:48:37.142Z,13.07
2023-02-11T18:51:09.996Z,20.05
2023-02-11T18:53:38.545Z,27.77
2023-02-11T18:56:12.665Z,10.68
2023-02-11T18:58:41.540Z,9.18
2023-02-11T19:01:16.487Z,9.23
2023-02-11T19:03:46.439Z,9.88
2023-02-11T19:06:16.882Z,10.23
2023-02-11T19:08:45.470Z,10.35
2023-02-11T19:11:16.107Z,10.98
2023-02-11T19:13:44.512Z,11.55
2023-02-11T19:16:16.811Z,10.63
2023-02-11T19:18:45.344Z,10.43
2023-02-11T19:21:13.946Z,11.48
2023-02-11T19:23:42.407Z,10.88
2023-02-11T19:26:10.806Z,10.43
2023-02-11T19:28:39.418Z,10.27
2023-02-11T19:31:09.162Z,10.38
2023-02-11T19:33:39.327Z,9.68
2023-02-11T19:36:09.699Z,9.63
2023-02-11T19:38:39.030Z,8.73
2023-02-11T19:41:07.556Z,10.75
2023-02-11T19:43:36.257Z,11.32
2023-02-11T19:46:05.508Z,11.50
2023-02-11T19:48:34.161Z,11.15
2023-02-11T19:51:13.110Z,10.13
2023-02-11T19:53:41.949Z,9.43
2023-02-11T19:56:10.712Z,11.10
2023-02-11T19:58:40.564Z,10.23
2023-02-11T20:01:11.396Z,10.32
2023-02-11T20:03:42.480Z,9.63
2023-02-11T20:06:15.726Z,10.85
2023-02-11T20:08:44.585Z,11.18
2023-02-11T20:11:14.344Z,12.70
2023-02-11T20:13:43.600Z,12.20
2023-02-11T20:16:13.650Z,11.93
2023-02-11T20:18:42.441Z,12.55
2023-02-11T20:21:14.058Z,11.23
2023-02-11T20:23:42.842Z,10.27
2023-02-11T20:26:13.928Z,10.95
2023-02-11T20:28:43.040Z,11.10
2023-02-11T20:31:12.555Z,10.60
2023-02-11T20:33:42.303Z,10.52
2023-02-11T20:36:15.841Z,10.98
2023-02-11T20:38:44.733Z,9.73
2023-02-11T20:41:15.602Z,11.80
2023-02-11T20:43:46.620Z,10.73
2023-02-11T20:46:18.137Z,11.05
2023-02-11T20:48:47.338Z,11.32
2023-02-11T20:51:20.272Z,10.57
2023-02-11T20:53:51.243Z,11.35
2023-02-11T20:56:22.129Z,12.57
2023-02-11T20:58:51.483Z,11.32
2023-02-11T21:01:22.220Z,11.18
2023-02-11T21:03:52.933Z,10.30
2023-02-11T21:06:24.480Z,10.00
2023-02-11T21:08:53.755Z,9.70
2023-02-11T21:11:22.341Z,9.10
2023-02-11T21:13:51.161Z,11.38
2023-02-11T21:16:22.152Z,9.32
2023-02-11T21:18:52.152Z,10.57
2023-02-11T21:21:22.393Z,10.23
2023-02-11T21:23:51.410Z,10.75
2023-02-11T21:26:19.890Z,11.27
2023-02-11T21:28:48.743Z,12.88
2023-02-11T21:31:20.618Z,11.15
2023-02-11T21:33:49.441Z,9.88
2023-02-11T21:36:18.875Z,9.70
2023-02-11T21:38:49.802Z,10.63
2023-02-11T21:41:19.757Z,10.52
2023-02-11T21:43:48.274Z,11.50
2023-02-11T21:46:17.944Z,11.48
2023-02-11T21:48:47.078Z,11.57
2023-02-11T21:51:17.784Z,12.23
2023-02-11T21:53:46.767Z,10.90
2023-02-11T21:56:18.375Z,10.93
2023-02-11T21:58:47.492Z,10.35
2023-02-11T22:01:18.016Z,10.77
2023-02-11T22:03:47.625Z,10.13
2023-02-11T22:06:18.707Z,11.88
2023-02-11T22:08:47.145Z,10.73
2023-02-11T22:11:17.250Z,10.73
2023-02-11T22:13:46.228Z,11.13
2023-02-11T22:16:17.225Z,10.05
2023-02-11T22:18:46.413Z,11.82
2023-02-11T22:21:16.720Z,10.75
2023-02-11T22:23:45.620Z,11.15
2023-02-11T22:26:15.594Z,10.48
2023-02-11T22:28:46.192Z,11.02
2023-02-11T22:31:17.490Z,11.75
2023-02-11T22:33:46.939Z,11.70
2023-02-11T22:36:17.438Z,11.80
2023-02-11T22:38:46.244Z,12.10
2023-02-11T22:41:14.820Z,10.52
2023-02-11T22:43:45.521Z,9.88
2023-02-11T22:46:16.617Z,10.90
2023-02-11T22:48:45.449Z,10.20
2023-02-11T22:51:16.021Z,10.98
2023-02-11T22:53:44.707Z,11.65
2023-02-11T22:56:15.781Z,10.43
2023-02-11T22:58:45.843Z,11.00
2023-02-11T23:01:14.959Z,11.40
2023-02-11T23:03:43.958Z,13.13
2023-02-11T23:06:13.046Z,12.35
2023-02-11T23:08:42.877Z,11.00
2023-02-11T23:11:13.257Z,11.07
2023-02-11T23:13:43.140Z,11.73
2023-02-11T23:16:14.794Z,10.85
2023-02-11T23:18:45.136Z,10.93
2023-02-11T23:21:16.538Z,10.70
2023-02-11T23:23:46.117Z,11.40
2023-02-11T23:26:16.886Z,11.15
2023-02-11T23:28:46.159Z,11.30
2023-02-11T23:31:19.643Z,11.77
2023-02-11T23:33:49.189Z,11.52
2023-02-11T23:36:19.258Z,11.15
2023-02-11T23:38:48.005Z,10.95
2023-02-11T23:41:17.225Z,10.77
2023-02-11T23:43:45.858Z,10.95
2023-02-11T23:46:14.368Z,9.82
2023-02-11T23:48:44.483Z,11.43
2023-02-11T23:51:12.972Z,11.38
2023-02-11T23:53:41.706Z,10.48
2023-02-11T23:56:14.446Z,12.38
2023-02-11T23:58:44.702Z,11.02
